createdAt,value
2022-07-25T00:01:50.727Z,100136.47
2022-07-25T00:04:18.789Z,100135.63
2022-07-25T00:06:46.730Z,100131.50
2022-07-25T00:09:14.069Z,100136.06
2022-07-25T00:11:42.577Z,100131.09
2022-07-25T00:14:10.242Z,100137.72
2022-07-25T00:16:37.817Z,100128.81
2022-07-25T00:19:05.330Z,100142.28
2022-07-25T00:21:32.818Z,100136.91
2022-07-25T00:23:59.982Z,100134.22
2022-07-25T00:26:27.447Z,100125.50
2022-07-25T00:28:54.685Z,100128.06
2022-07-25T00:31:21.868Z,100129.72
2022-07-25T00:33:49.387Z,100119.16
2022-07-25T00:36:16.444Z,100126.03
2022-07-25T00:38:43.586Z,100121.84
2022-07-25T00:41:11.131Z,100126.03
2022-07-25T00:43:38.279Z,100125.00
2022-07-25T00:46:05.716Z,100115.50
2022-07-25T00:48:36.314Z,100120.06
2022-07-25T00:51:03.569Z,100121.72
2022-07-25T00:53:30.691Z,100128.59
2022-07-25T00:55:58.145Z,100126.75
2022-07-25T00:58:25.375Z,100120.75
2022-07-25T01:00:52.542Z,100126.97
2022-07-25T01:03:20.145Z,100125.91
2022-07-25T01:05:53.090Z,100122.84
2022-07-25T01:08:21.945Z,100131.94
2022-07-25T01:10:49.471Z,100129.25
2022-07-25T01:13:16.831Z,100129.69
2022-07-25T01:15:44.366Z,100122.03
2022-07-25T01:18:11.678Z,100133.62
2022-07-25T01:20:39.201Z,100127.59
2022-07-25T01:23:06.607Z,100123.91
2022-07-25T01:25:34.021Z,100113.56
2022-07-25T01:28:01.236Z,100120.00
2022-07-25T01:30:28.642Z,100125.56
2022-07-25T01:32:55.734Z,100121.84
2022-07-25T01:35:22.857Z,100122.06
2022-07-25T01:37:50.392Z,100115.22
2022-07-25T01:40:17.528Z,100114.41
2022-07-25T01:42:44.960Z,100116.47
2022-07-25T01:45:12.820Z,100109.62
2022-07-25T01:47:40.386Z,100104.87
2022-07-25T01:50:08.129Z,100113.97
2022-07-25T01:52:36.745Z,100113.34
2022-07-25T01:55:04.148Z,100108.59
2022-07-25T01:57:33.456Z,100101.97
2022-07-25T02:00:08.749Z,100103.00
2022-07-25T02:02:39.109Z,100110.66
2022-07-25T02:05:07.791Z,100108.19
2022-07-25T02:07:35.318Z,100098.28
2022-07-25T02:10:03.697Z,100096.00
2022-07-25T02:12:31.260Z,100100.34
2022-07-25T02:14:58.432Z,100102.56
2022-07-25T02:17:25.628Z,100093.47
2022-07-25T02:19:53.083Z,100102.13
2022-07-25T02:22:20.145Z,100099.22
2022-07-25T02:24:47.268Z,100097.78
2022-07-25T02:27:14.676Z,100107.72
2022-07-25T02:29:41.795Z,100103.97
2022-07-25T02:32:09.302Z,100106.03
2022-07-25T02:34:36.785Z,100113.88
2022-07-25T02:37:03.960Z,100109.72
2022-07-25T02:39:31.135Z,100107.22
2022-07-25T02:41:58.488Z,100113.00
2022-07-25T02:44:25.574Z,100109.69
2022-07-25T02:46:53.061Z,100100.41
2022-07-25T02:49:20.595Z,100112.53
2022-07-25T02:51:47.731Z,100112.53
2022-07-25T02:54:15.202Z,100114.44
2022-07-25T02:56:42.990Z,100117.12
2022-07-25T02:59:10.088Z,100118.56
2022-07-25T03:01:37.294Z,100123.69
2022-07-25T03:04:05.396Z,100118.91
2022-07-25T03:06:32.776Z,100129.84
2022-07-25T03:08:59.869Z,100121.75
2022-07-25T03:11:27.259Z,100117.84
2022-07-25T03:13:54.965Z,100125.47
2022-07-25T03:16:22.190Z,100123.38
2022-07-25T03:18:49.569Z,100124.41
2022-07-25T03:21:16.632Z,100130.19
2022-07-25T03:23:44.681Z,100127.72
2022-07-25T03:26:14.467Z,100126.06
2022-07-25T03:28:41.787Z,100135.34
2022-07-25T03:31:09.122Z,100134.91
2022-07-25T03:33:36.598Z,100125.25
2022-07-25T03:36:04.031Z,100122.78
2022-07-25T03:38:31.413Z,100129.19
2022-07-25T03:40:58.780Z,100133.94
2022-07-25T03:43:25.863Z,100135.97
2022-07-25T03:45:53.034Z,100133.94
2022-07-25T03:48:20.455Z,100132.53
2022-07-25T03:50:47.541Z,100136.06
2022-07-25T03:53:14.809Z,100135.84
2022-07-25T03:55:42.216Z,100133.16
2022-07-25T03:58:09.402Z,100133.19
2022-07-25T04:00:36.559Z,100141.53
2022-07-25T04:03:04.579Z,100125.88
2022-07-25T04:05:31.721Z,100136.22
2022-07-25T04:07:59.020Z,100137.09
2022-07-25T04:10:26.393Z,100144.53
2022-07-25T04:12:53.438Z,100140.41
2022-07-25T04:15:20.505Z,100142.47
2022-07-25T04:17:47.880Z,100146.81
2022-07-25T04:20:15.758Z,100151.56
2022-07-25T04:22:46.761Z,100150.09
2022-07-25T04:25:14.736Z,100138.75
2022-07-25T04:27:41.860Z,100143.94
2022-07-25T04:30:09.698Z,100150.78
2022-07-25T04:32:37.166Z,100152.00
2022-07-25T04:35:04.589Z,100158.81
2022-07-25T04:37:31.781Z,100155.34
2022-07-25T04:39:59.200Z,100156.13
2022-07-25T04:42:26.360Z,100155.91
2022-07-25T04:44:54.297Z,100160.25
2022-07-25T04:47:21.801Z,100151.63
2022-07-25T04:49:49.401Z,100152.44
2022-07-25T04:52:16.539Z,100151.38
2022-07-25T04:54:43.941Z,100155.97
2022-07-25T04:57:11.065Z,100157.59
2022-07-25T04:59:38.172Z,100154.31
2022-07-25T05:02:06.437Z,100156.19
2022-07-25T05:04:33.568Z,100147.91
2022-07-25T05:07:02.422Z,100142.09
2022-07-25T05:09:29.878Z,100152.25
2022-07-25T05:11:56.997Z,100149.13
2022-07-25T05:14:24.193Z,100148.69
2022-07-25T05:16:51.614Z,100153.03
2022-07-25T05:19:18.737Z,100144.25
2022-07-25T05:21:45.769Z,100143.31
2022-07-25T05:24:13.232Z,100150.25
2022-07-25T05:26:40.434Z,100150.97
2022-07-25T05:29:07.521Z,100144.97
2022-07-25T05:31:34.931Z,100142.94
2022-07-25T05:34:05.838Z,100147.44
2022-07-25T05:36:33.260Z,100147.72
2022-07-25T05:39:01.023Z,100148.78
2022-07-25T05:41:28.134Z,100142.03
2022-07-25T05:43:55.275Z,100135.66
2022-07-25T05:46:22.794Z,100144.69
2022-07-25T05:48:53.050Z,100138.31
2022-07-25T05:51:20.180Z,100132.50
2022-07-25T05:53:50.237Z,100136.69
2022-07-25T05:56:17.418Z,100134.00
2022-07-25T05:58:44.508Z,100128.41
2022-07-25T06:01:12.716Z,100133.53
2022-07-25T06:03:40.458Z,100143.91
2022-07-25T06:06:11.258Z,100141.00
2022-07-25T06:08:38.963Z,100141.50
2022-07-25T06:11:08.297Z,100137.97
2022-07-25T06:13:36.705Z,100137.16
2022-07-25T06:16:04.023Z,100132.09
2022-07-25T06:18:31.538Z,100134.00
2022-07-25T06:20:58.811Z,100135.63
2022-07-25T06:23:27.667Z,100128.44
2022-07-25T06:25:55.351Z,100125.22
2022-07-25T06:28:22.494Z,100125.47
2022-07-25T06:30:49.568Z,100129.13
2022-07-25T06:33:16.955Z,100139.44
2022-07-25T06:35:44.100Z,100132.84
2022-07-25T06:38:11.244Z,100122.78
2022-07-25T06:40:38.669Z,100113.94
2022-07-25T06:43:05.977Z,100124.03
2022-07-25T06:45:33.169Z,100121.19
2022-07-25T06:48:00.575Z,100123.31
2022-07-25T06:50:27.693Z,100117.25
2022-07-25T06:52:55.110Z,100108.84
2022-07-25T06:55:22.503Z,100107.69
2022-07-25T06:57:49.836Z,100116.25
2022-07-25T07:00:17.280Z,100102.91
2022-07-25T07:02:53.609Z,100122.34
2022-07-25T07:05:21.019Z,100113.59
2022-07-25T07:07:48.492Z,100096.03
2022-07-25T07:10:16.602Z,100095.56
2022-07-25T07:12:44.141Z,100104.19
2022-07-25T07:15:12.602Z,100095.09
2022-07-25T07:17:39.783Z,100099.91
2022-07-25T07:20:08.034Z,100096.22
2022-07-25T07:22:49.487Z,100101.03
2022-07-25T07:25:18.320Z,100100.59
2022-07-25T07:27:47.842Z,100101.59
2022-07-25T07:30:15.138Z,100106.09
2022-07-25T07:32:42.891Z,100092.56
2022-07-25T07:35:12.322Z,100099.66
2022-07-25T07:37:43.443Z,100096.78
2022-07-25T07:40:17.854Z,100100.66
2022-07-25T07:42:47.286Z,100094.75
2022-07-25T07:45:20.575Z,100092.66
2022-07-25T07:47:52.609Z,100090.25
2022-07-25T07:50:22.580Z,100097.63
2022-07-25T07:52:51.457Z,100091.06
2022-07-25T07:55:37.713Z,100086.72
2022-07-25T07:58:05.369Z,100098.72
2022-07-25T08:00:32.592Z,100094.69
2022-07-25T08:03:00.527Z,100092.25
2022-07-25T08:05:30.566Z,100087.34
2022-07-25T08:07:58.307Z,100096.91
2022-07-25T08:10:28.246Z,100098.28
2022-07-25T08:12:56.106Z,100099.38
2022-07-25T08:15:23.580Z,100086.28
2022-07-25T08:17:51.661Z,100088.19
2022-07-25T08:20:37.339Z,100080.81
2022-07-25T08:23:05.867Z,100089.28
2022-07-25T08:25:33.148Z,100080.25
2022-07-25T08:28:00.338Z,100072.34
2022-07-25T08:30:27.979Z,100076.44
2022-07-25T08:32:57.114Z,100076.97
2022-07-25T08:35:25.807Z,100073.09
2022-07-25T08:37:54.046Z,100079.66
2022-07-25T08:40:23.345Z,100071.22
2022-07-25T08:42:50.826Z,100070.91
2022-07-25T08:45:19.693Z,100062.41
2022-07-25T08:47:48.045Z,100057.50
2022-07-25T08:50:17.407Z,100054.69
2022-07-25T08:52:48.220Z,100051.09
2022-07-25T08:55:20.261Z,100060.72
2022-07-25T08:57:49.209Z,100053.91
2022-07-25T09:00:18.626Z,100056.66
2022-07-25T09:02:59.097Z,100055.28
2022-07-25T09:05:28.492Z,100046.84
2022-07-25T09:07:56.675Z,100044.94
2022-07-25T09:10:28.690Z,100036.19
2022-07-25T09:13:02.014Z,100045.75
2022-07-25T09:15:34.758Z,100035.62
2022-07-25T09:18:10.658Z,100040.84
2022-07-25T09:20:41.163Z,100039.44
2022-07-25T09:23:09.377Z,100031.25
2022-07-25T09:25:36.755Z,100039.22
2022-07-25T09:28:14.752Z,100031.91
2022-07-25T09:30:55.022Z,100021.78
2022-07-25T09:33:23.948Z,100029.97
2022-07-25T09:35:52.201Z,100028.06
2022-07-25T09:38:20.396Z,100025.12
2022-07-25T09:41:03.011Z,100037.37
2022-07-25T09:43:38.266Z,100023.75
2022-07-25T09:46:07.042Z,100021.53
2022-07-25T09:48:35.995Z,100019.91
2022-07-25T09:51:03.842Z,100018.00
2022-07-25T09:53:30.935Z,100008.44
2022-07-25T09:55:59.547Z,100012.78
2022-07-25T09:58:28.184Z,100003.75
2022-07-25T10:01:03.778Z,99996.38
2022-07-25T10:03:45.755Z,100002.31
2022-07-25T10:06:31.313Z,99992.72
2022-07-25T10:08:59.320Z,99995.44
2022-07-25T10:11:27.641Z,99989.12
2022-07-25T10:13:55.466Z,99990.53
2022-07-25T10:16:24.771Z,99988.38
2022-07-25T10:18:57.889Z,99977.16
2022-07-25T10:21:28.291Z,99974.44
2022-07-25T10:24:04.592Z,99974.53
2022-07-25T10:26:33.715Z,99978.91
2022-07-25T10:29:01.798Z,99967.62
2022-07-25T10:31:32.045Z,99968.94
2022-07-25T10:34:08.596Z,99960.94
2022-07-25T10:36:54.188Z,99953.78
2022-07-25T10:39:22.405Z,99959.69
2022-07-25T10:41:52.318Z,99956.88
2022-07-25T10:44:19.862Z,99951.91
2022-07-25T10:46:49.021Z,99950.63
2022-07-25T10:49:29.083Z,99947.50
2022-07-25T10:52:00.893Z,99947.81
2022-07-25T10:54:33.655Z,99934.59
2022-07-25T10:57:01.239Z,99930.00
2022-07-25T10:59:31.615Z,99930.53
2022-07-25T11:01:59.487Z,99930.47
2022-07-25T11:04:27.744Z,99921.28
2022-07-25T11:06:54.890Z,99914.63
2022-07-25T11:09:28.131Z,99914.63
2022-07-25T11:11:57.760Z,99915.88
2022-07-25T11:14:26.364Z,99908.31
2022-07-25T11:16:56.224Z,99907.50
2022-07-25T11:19:23.652Z,99899.78
2022-07-25T11:21:55.913Z,99898.44
2022-07-25T11:24:37.739Z,99891.31
2022-07-25T11:27:09.748Z,99892.53
2022-07-25T11:29:42.439Z,99881.88
2022-07-25T11:32:11.830Z,99885.91
2022-07-25T11:34:42.868Z,99885.06
2022-07-25T11:37:11.697Z,99878.97
2022-07-25T11:39:40.686Z,99872.47
2022-07-25T11:42:10.325Z,99866.88
2022-07-25T11:44:47.231Z,99868.34
2022-07-25T11:47:30.895Z,99868.00
2022-07-25T11:50:01.389Z,99855.59
2022-07-25T11:52:31.579Z,99862.50
2022-07-25T11:55:03.131Z,99841.63
2022-07-25T11:57:32.135Z,99847.75
2022-07-25T12:00:00.710Z,99846.69
2022-07-25T12:02:33.160Z,99844.53
2022-07-25T12:05:03.897Z,99832.91
2022-07-25T12:07:54.881Z,99834.59
2022-07-25T12:10:24.622Z,99825.19
2022-07-25T12:12:56.481Z,99826.53
2022-07-25T12:15:29.241Z,99826.44
2022-07-25T12:17:58.188Z,99819.28
2022-07-25T12:20:28.105Z,99820.53
2022-07-25T12:22:58.287Z,99809.41
2022-07-25T12:25:30.720Z,99801.44
2022-07-25T12:27:59.054Z,99806.66
2022-07-25T12:30:27.819Z,99800.63
2022-07-25T12:32:56.267Z,99804.34
2022-07-25T12:35:24.317Z,99790.50
2022-07-25T12:37:52.414Z,99783.75
2022-07-25T12:40:20.296Z,99782.91
2022-07-25T12:42:47.796Z,99780.44
2022-07-25T12:45:17.258Z,99778.00
2022-07-25T12:47:45.522Z,99770.94
2022-07-25T12:50:13.759Z,99763.34
2022-07-25T12:52:42.288Z,99761.12
2022-07-25T12:55:19.914Z,99751.94
2022-07-25T12:57:47.487Z,99755.78
2022-07-25T13:00:17.005Z,99756.09
2022-07-25T13:02:44.442Z,99753.28
2022-07-25T13:05:11.959Z,99749.75
2022-07-25T13:07:39.635Z,99733.41
2022-07-25T13:10:07.377Z,99727.13
2022-07-25T13:12:34.769Z,99724.50
2022-07-25T13:15:02.054Z,99735.22
2022-07-25T13:17:29.149Z,99718.13
2022-07-25T13:19:57.114Z,99722.62
2022-07-25T13:22:24.867Z,99721.03
2022-07-25T13:24:52.486Z,99714.06
2022-07-25T13:27:21.302Z,99709.91
2022-07-25T13:29:54.108Z,99699.47
2022-07-25T13:32:22.447Z,99707.59
2022-07-25T13:34:50.092Z,99697.66
2022-07-25T13:37:17.243Z,99681.78
2022-07-25T13:39:44.805Z,99688.22
2022-07-25T13:42:12.033Z,99678.34
2022-07-25T13:44:39.099Z,99683.81
2022-07-25T13:47:06.538Z,99674.84
2022-07-25T13:49:33.677Z,99677.53
2022-07-25T13:52:00.807Z,99680.69
2022-07-25T13:54:28.279Z,99674.75
2022-07-25T13:56:55.440Z,99668.94
2022-07-25T13:59:22.566Z,99670.06
2022-07-25T14:01:50.612Z,99659.50
2022-07-25T14:04:18.168Z,99663.09
2022-07-25T14:06:45.299Z,99658.94
2022-07-25T14:09:12.367Z,99656.53
2022-07-25T14:11:39.772Z,99649.44
2022-07-25T14:14:06.883Z,99650.16
2022-07-25T14:16:34.389Z,99642.50
2022-07-25T14:19:02.410Z,99644.84
2022-07-25T14:21:30.434Z,99633.00
2022-07-25T14:23:57.583Z,99626.94
2022-07-25T14:26:25.918Z,99622.53
2022-07-25T14:28:53.102Z,99621.41
2022-07-25T14:31:21.488Z,99627.47
2022-07-25T14:33:48.989Z,99624.53
2022-07-25T14:36:16.101Z,99618.72
2022-07-25T14:38:43.706Z,99622.56
2022-07-25T14:41:13.263Z,99601.12
2022-07-25T14:43:41.635Z,99609.78
2022-07-25T14:46:09.115Z,99601.22
2022-07-25T14:48:37.952Z,99599.00
2022-07-25T14:51:06.181Z,99599.28
2022-07-25T14:53:34.199Z,99591.06
2022-07-25T14:56:04.279Z,99587.59
2022-07-25T14:58:31.893Z,99588.87
2022-07-25T15:00:59.153Z,99585.75
2022-07-25T15:03:26.748Z,99580.84
2022-07-25T15:05:54.130Z,99576.47
2022-07-25T15:08:21.227Z,99579.50
2022-07-25T15:10:49.128Z,99567.19
2022-07-25T15:13:32.349Z,99566.53
2022-07-25T15:16:01.171Z,99563.72
2022-07-25T15:18:28.636Z,99561.56
2022-07-25T15:20:56.033Z,99563.53
2022-07-25T15:23:25.191Z,99552.88
2022-07-25T15:26:03.453Z,99553.13
2022-07-25T15:28:37.546Z,99551.50
2022-07-25T15:31:04.990Z,99549.41
2022-07-25T15:33:33.493Z,99544.37
2022-07-25T15:36:00.849Z,99546.25
2022-07-25T15:38:29.192Z,99538.09
2022-07-25T15:40:57.193Z,99540.31
2022-07-25T15:43:25.269Z,99533.78
2022-07-25T15:45:52.838Z,99535.81
2022-07-25T15:48:20.380Z,99540.53
2022-07-25T15:50:49.698Z,99532.09
2022-07-25T15:53:17.144Z,99531.41
2022-07-25T15:55:44.558Z,99529.94
2022-07-25T15:58:12.184Z,99524.56
2022-07-25T16:00:40.283Z,99523.66
2022-07-25T16:03:07.853Z,99527.44
2022-07-25T16:05:35.903Z,99512.87
2022-07-25T16:08:03.770Z,99516.59
2022-07-25T16:10:32.615Z,99523.44
2022-07-25T16:13:02.187Z,99519.03
2022-07-25T16:15:29.361Z,99509.44
2022-07-25T16:18:01.850Z,99516.53
2022-07-25T16:20:33.971Z,99513.25
2022-07-25T16:23:01.696Z,99522.91
2022-07-25T16:25:29.495Z,99517.81
2022-07-25T16:27:57.067Z,99521.97
2022-07-25T16:30:25.139Z,99518.66
2022-07-25T16:32:52.390Z,99523.53
2022-07-25T16:35:19.954Z,99520.19
2022-07-25T16:37:47.391Z,99516.19
2022-07-25T16:40:15.503Z,99513.63
2022-07-25T16:42:42.863Z,99526.94
2022-07-25T16:45:10.880Z,99513.97
2022-07-25T16:47:40.142Z,99512.81
2022-07-25T16:50:07.517Z,99515.13
2022-07-25T16:52:34.922Z,99523.25
2022-07-25T16:55:02.209Z,99510.78
2022-07-25T16:57:29.462Z,99510.88
2022-07-25T16:59:57.092Z,99512.78
2022-07-25T17:02:29.292Z,99517.25
2022-07-25T17:04:57.347Z,99510.53
2022-07-25T17:07:25.477Z,99507.25
2022-07-25T17:09:53.005Z,99512.38
2022-07-25T17:12:20.915Z,99507.94
2022-07-25T17:14:48.012Z,99508.69
2022-07-25T17:17:15.257Z,99506.34
2022-07-25T17:19:42.768Z,99507.59
2022-07-25T17:22:10.446Z,99508.88
2022-07-25T17:24:38.775Z,99513.63
2022-07-25T17:27:09.743Z,99508.50
2022-07-25T17:29:36.903Z,99507.22
2022-07-25T17:32:06.004Z,99512.56
2022-07-25T17:34:33.663Z,99509.66
2022-07-25T17:37:02.952Z,99506.75
2022-07-25T17:39:30.652Z,99500.31
2022-07-25T17:41:58.254Z,99493.50
2022-07-25T17:44:25.588Z,99503.41
2022-07-25T17:46:55.861Z,99505.91
2022-07-25T17:49:23.398Z,99502.72
2022-07-25T17:51:50.573Z,99501.09
2022-07-25T17:54:17.754Z,99502.28
2022-07-25T17:56:45.597Z,99510.22
2022-07-25T17:59:13.081Z,99502.06
2022-07-25T18:01:40.300Z,99503.22
2022-07-25T18:04:08.429Z,99504.59
2022-07-25T18:06:35.861Z,99500.53
2022-07-25T18:09:03.205Z,99495.44
2022-07-25T18:11:30.778Z,99493.50
2022-07-25T18:13:59.465Z,99488.06
2022-07-25T18:16:26.758Z,99486.72
2022-07-25T18:18:54.352Z,99488.13
2022-07-25T18:21:21.498Z,99487.31
2022-07-25T18:23:48.567Z,99481.06
2022-07-25T18:26:16.447Z,99481.59
2022-07-25T18:28:44.274Z,99477.78
2022-07-25T18:31:11.603Z,99472.91
2022-07-25T18:33:39.167Z,99477.22
2022-07-25T18:36:07.744Z,99475.03
2022-07-25T18:38:36.018Z,99472.03
2022-07-25T18:41:28.161Z,99469.81
2022-07-25T18:43:52.917Z,99471.41
2022-07-25T18:46:20.417Z,99465.94
2022-07-25T18:48:47.832Z,99468.41
2022-07-25T18:51:15.138Z,99482.50
2022-07-25T18:53:47.324Z,99468.37
2022-07-25T18:56:15.947Z,99468.03
2022-07-25T18:58:44.467Z,99478.31
2022-07-25T19:01:12.826Z,99482.59
2022-07-25T19:03:40.775Z,99487.44
2022-07-25T19:06:09.260Z,99482.75
2022-07-25T19:08:36.683Z,99478.09
2022-07-25T19:11:03.846Z,99472.34
2022-07-25T19:16:18.854Z,99481.22
2022-07-25T19:18:46.757Z,99486.56
2022-07-25T19:21:14.004Z,99473.78
2022-07-25T19:23:41.143Z,99481.06
2022-07-25T19:26:08.629Z,99481.03
2022-07-25T19:28:36.457Z,99470.34
2022-07-25T19:31:03.814Z,99472.47
2022-07-25T19:33:34.661Z,99476.22
2022-07-25T19:36:05.692Z,99473.81
2022-07-25T19:38:33.110Z,99478.88
2022-07-25T19:41:00.848Z,99480.66
2022-07-25T19:43:27.999Z,99479.78
2022-07-25T19:45:55.431Z,99481.63
2022-07-25T19:48:25.322Z,99470.66
2022-07-25T19:50:52.592Z,99490.47
2022-07-25T19:53:22.125Z,99478.94
2022-07-25T19:55:52.569Z,99479.44
2022-07-25T19:58:20.023Z,99482.00
2022-07-25T20:00:47.284Z,99482.50
2022-07-25T20:03:15.633Z,99485.63
2022-07-25T20:05:42.911Z,99481.22
2022-07-25T20:08:09.982Z,99483.03
2022-07-25T20:10:37.389Z,99481.38
2022-07-25T20:13:04.827Z,99478.56
2022-07-25T20:15:32.195Z,99487.69
2022-07-25T20:17:59.623Z,99470.47
2022-07-25T20:20:26.914Z,99475.06
2022-07-25T20:22:54.726Z,99483.69
2022-07-25T20:25:22.275Z,99489.28
2022-07-25T20:27:49.876Z,99478.88
2022-07-25T20:30:17.928Z,99476.09
2022-07-25T20:32:45.307Z,99484.72
2022-07-25T20:35:12.491Z,99488.97
2022-07-25T20:37:39.728Z,99478.31
2022-07-25T20:40:08.618Z,99478.19
2022-07-25T20:42:36.885Z,99474.47
2022-07-25T20:45:05.871Z,99476.34
2022-07-25T20:47:34.136Z,99477.09
2022-07-25T20:50:01.499Z,99473.97
2022-07-25T20:52:30.269Z,99473.31
2022-07-25T20:54:57.776Z,99479.69
2022-07-25T20:57:25.031Z,99475.03
2022-07-25T20:59:52.119Z,99479.38
2022-07-25T21:02:19.770Z,99477.53
2022-07-25T21:04:48.558Z,99484.50
2022-07-25T21:07:16.576Z,99470.72
2022-07-25T21:09:44.697Z,99476.97
2022-07-25T21:12:11.794Z,99466.91
2022-07-25T21:14:39.009Z,99464.09
2022-07-25T21:17:06.572Z,99464.94
2022-07-25T21:19:33.787Z,99465.41
2022-07-25T21:22:01.951Z,99456.97
2022-07-25T21:24:29.423Z,99460.97
2022-07-25T21:26:56.699Z,99466.38
2022-07-25T21:29:23.766Z,99466.38
2022-07-25T21:31:51.370Z,99472.25
2022-07-25T21:34:21.641Z,99470.62
2022-07-25T21:36:48.726Z,99464.75
2022-07-25T21:39:16.381Z,99458.94
2022-07-25T21:41:44.875Z,99468.44
2022-07-25T21:44:13.824Z,99457.88
2022-07-25T21:46:41.223Z,99458.13
2022-07-25T21:49:40.757Z,99460.56
2022-07-25T21:52:09.249Z,99457.78
2022-07-25T21:54:42.197Z,99457.44
2022-07-25T21:57:12.997Z,99465.75
2022-07-25T21:59:44.861Z,99451.69
2022-07-25T22:02:12.549Z,99460.25
2022-07-25T22:04:39.959Z,99459.78
2022-07-25T22:07:07.047Z,99452.87
2022-07-25T22:09:34.315Z,99445.72
2022-07-25T22:12:02.056Z,99443.84
2022-07-25T22:14:29.204Z,99444.31
2022-07-25T22:16:56.422Z,99449.59
2022-07-25T22:19:23.973Z,99450.53
2022-07-25T22:21:51.260Z,99446.31
2022-07-25T22:24:18.373Z,99447.59
2022-07-25T22:26:45.849Z,99455.13
2022-07-25T22:29:13.011Z,99459.00
2022-07-25T22:31:40.491Z,99450.06
2022-07-25T22:34:08.922Z,99449.50
2022-07-25T22:36:36.546Z,99461.94
2022-07-25T22:39:04.034Z,99465.38
2022-07-25T22:41:31.674Z,99461.97
2022-07-25T22:44:00.074Z,99472.66
2022-07-25T22:46:28.961Z,99474.31
2022-07-25T22:48:57.554Z,99478.66
2022-07-25T22:51:25.554Z,99483.22
2022-07-25T22:53:52.861Z,99488.03
2022-07-25T22:56:20.791Z,99488.03
2022-07-25T22:58:49.035Z,99484.41
2022-07-25T23:01:17.836Z,99483.34
2022-07-25T23:03:45.773Z,99484.53
2022-07-25T23:06:13.209Z,99492.97
2022-07-25T23:08:40.347Z,99495.56
2022-07-25T23:11:08.220Z,99499.31
2022-07-25T23:13:36.260Z,99491.69
2022-07-25T23:16:04.644Z,99489.22
2022-07-25T23:18:32.204Z,99488.88
2022-07-25T23:20:59.753Z,99494.59
2022-07-25T23:23:26.878Z,99495.31
2022-07-25T23:25:54.291Z,99502.22
2022-07-25T23:28:21.375Z,99497.19
2022-07-25T23:30:48.492Z,99492.13
2022-07-25T23:33:15.901Z,99500.34
2022-07-25T23:35:43.565Z,99509.16
2022-07-25T23:38:10.946Z,99507.97
2022-07-25T23:40:38.321Z,99499.53
2022-07-25T23:43:05.445Z,99500.44
2022-07-25T23:45:32.768Z,99509.12
2022-07-25T23:48:00.126Z,99501.72
2022-07-25T23:50:27.190Z,99501.72
2022-07-25T23:52:54.331Z,99498.09
2022-07-25T23:55:21.746Z,99492.25
2022-07-25T23:57:48.887Z,99485.69
